createdAt,value
2018-04-06T00:01:26.098Z,69.20
2018-04-06T00:03:54.453Z,69.08
2018-04-06T00:06:23.514Z,68.64
2018-04-06T00:08:51.938Z,68.48
2018-04-06T00:11:21.030Z,68.23
2018-04-06T00:13:49.387Z,68.48
2018-04-06T00:16:18.278Z,68.01
2018-04-06T00:18:46.624Z,68.41
2018-04-06T00:21:15.874Z,68.49
2018-04-06T00:23:44.297Z,68.13
2018-04-06T00:26:13.420Z,68.22
2018-04-06T00:28:41.952Z,68.11
2018-04-06T00:31:10.317Z,68.05
2018-04-06T00:33:38.654Z,67.71
2018-04-06T00:36:07.001Z,67.63
2018-04-06T00:38:35.346Z,67.74
2018-04-06T00:41:04.605Z,67.43
2018-04-06T00:43:33.582Z,67.25
2018-04-06T00:46:02.115Z,67.56
2018-04-06T00:48:30.474Z,67.53
2018-04-06T00:50:58.825Z,66.84
2018-04-06T00:53:39.345Z,66.67
2018-04-06T00:56:08.870Z,66.21
2018-04-06T00:58:37.214Z,65.64
2018-04-06T01:01:05.560Z,66.23
2018-04-06T01:03:35.078Z,65.85
2018-04-06T01:06:04.104Z,65.95
2018-04-06T01:08:32.478Z,66.43
2018-04-06T01:11:02.034Z,66.51
2018-04-06T01:13:30.609Z,66.01
2018-04-06T01:15:58.988Z,66.20
2018-04-06T01:18:27.352Z,66.38
2018-04-06T01:20:55.938Z,66.13
2018-04-06T01:23:25.244Z,66.16
2018-04-06T01:25:53.612Z,66.27
2018-04-06T01:28:21.949Z,66.37
2018-04-06T01:30:50.385Z,66.13
2018-04-06T01:33:18.965Z,66.03
2018-04-06T01:35:47.310Z,66.01
2018-04-06T01:38:16.733Z,66.16
2018-04-06T01:40:45.075Z,66.10
2018-04-06T01:43:14.113Z,66.06
2018-04-06T01:45:43.299Z,66.03
2018-04-06T01:48:13.030Z,65.80
2018-04-06T01:50:42.031Z,65.90
2018-04-06T01:53:10.423Z,66.11
2018-04-06T01:55:38.770Z,66.02
2018-04-06T01:58:07.662Z,65.94
2018-04-06T02:00:36.967Z,65.78
2018-04-06T02:03:05.698Z,65.52
2018-04-06T02:05:34.106Z,65.82
2018-04-06T02:08:02.841Z,65.80
2018-04-06T02:10:32.039Z,65.93
2018-04-06T02:13:01.607Z,65.81
2018-04-06T02:15:30.076Z,65.91
2018-04-06T02:17:58.413Z,65.98
2018-04-06T02:20:26.926Z,66.06
2018-04-06T02:22:55.278Z,65.82
2018-04-06T02:25:24.323Z,65.95
2018-04-06T02:27:52.953Z,65.91
2018-04-06T02:30:22.055Z,65.85
2018-04-06T02:32:50.568Z,65.99
2018-04-06T02:35:18.918Z,65.82
2018-04-06T02:37:47.269Z,65.93
2018-04-06T02:40:16.185Z,65.99
2018-04-06T02:42:44.570Z,66.10
2018-04-06T02:45:12.929Z,66.18
2018-04-06T02:47:41.720Z,66.30
2018-04-06T02:50:10.338Z,66.41
2018-04-06T02:52:38.706Z,66.52
2018-04-06T02:55:08.129Z,66.72
2018-04-06T02:57:36.498Z,66.84
2018-04-06T03:00:06.447Z,66.92
2018-04-06T03:02:36.787Z,67.03
2018-04-06T03:05:05.218Z,67.16
2018-04-06T03:07:33.740Z,67.17
2018-04-06T03:10:02.086Z,67.54
2018-04-06T03:12:30.770Z,67.62
2018-04-06T03:15:00.342Z,67.74
2018-04-06T03:17:29.695Z,67.78
2018-04-06T03:19:58.364Z,67.76
2018-04-06T03:22:26.723Z,67.65
2018-04-06T03:24:55.183Z,67.81
2018-04-06T03:27:24.036Z,68.05
2018-04-06T03:29:53.001Z,67.90
2018-04-06T03:32:21.354Z,67.90
2018-04-06T03:34:49.700Z,68.06
2018-04-06T03:37:18.638Z,68.23
2018-04-06T03:39:47.101Z,68.57
2018-04-06T03:42:15.504Z,68.34
2018-04-06T03:44:43.850Z,68.05
2018-04-06T03:47:13.220Z,68.14
2018-04-06T03:49:42.143Z,67.98
2018-04-06T03:52:10.589Z,68.17
2018-04-06T03:54:39.023Z,68.08
2018-04-06T03:57:07.768Z,68.16
2018-04-06T03:59:36.155Z,68.37
2018-04-06T04:02:05.648Z,68.15
2018-04-06T04:04:34.501Z,68.21
2018-04-06T04:07:03.465Z,68.07
2018-04-06T04:09:31.871Z,68.17
2018-04-06T04:12:01.353Z,68.02
2018-04-06T04:14:30.174Z,67.98
2018-04-06T04:16:58.568Z,67.97
2018-04-06T04:19:27.445Z,67.90
2018-04-06T04:21:56.188Z,67.99
2018-04-06T04:24:25.362Z,67.94
2018-04-06T04:26:53.718Z,67.89
2018-04-06T04:29:22.197Z,68.01
2018-04-06T04:31:51.116Z,68.09
2018-04-06T04:34:19.516Z,68.02
2018-04-06T04:36:48.112Z,68.13
2018-04-06T04:39:16.492Z,68.19
2018-04-06T04:41:44.841Z,68.09
2018-04-06T04:44:13.301Z,68.01
2018-04-06T04:46:42.711Z,67.94
2018-04-06T04:49:11.134Z,68.03
2018-04-06T04:51:39.504Z,68.03
2018-04-06T04:54:10.379Z,67.76
2018-04-06T04:56:39.228Z,67.81
2018-04-06T04:59:08.303Z,67.78
2018-04-06T05:01:36.999Z,67.85
2018-04-06T05:04:05.355Z,67.95
2018-04-06T05:06:34.325Z,68.13
2018-04-06T05:09:03.222Z,67.61
2018-04-06T05:11:31.879Z,67.72
2018-04-06T05:14:00.316Z,67.72
2018-04-06T05:16:29.282Z,67.81
2018-04-06T05:18:57.805Z,67.64
2018-04-06T05:21:26.922Z,67.38
2018-04-06T05:23:55.754Z,67.26
2018-04-06T05:26:24.719Z,67.30
2018-04-06T05:28:53.141Z,67.28
2018-04-06T05:31:22.046Z,67.26
2018-04-06T05:33:50.395Z,67.25
2018-04-06T05:36:18.762Z,67.04
2018-04-06T05:38:47.587Z,67.18
2018-04-06T05:41:16.253Z,66.93
2018-04-06T05:43:45.403Z,66.98
2018-04-06T05:46:13.752Z,66.98
2018-04-06T05:48:42.245Z,67.04
2018-04-06T05:51:10.598Z,66.96
2018-04-06T05:53:39.406Z,66.66
2018-04-06T05:56:07.900Z,66.62
2018-04-06T05:58:36.261Z,66.71
2018-04-06T06:01:04.826Z,66.31
2018-04-06T06:03:33.196Z,66.21
2018-04-06T06:06:01.552Z,65.89
2018-04-06T06:08:30.182Z,65.57
2018-04-06T06:10:58.534Z,65.73
2018-04-06T06:13:27.033Z,65.29
2018-04-06T06:15:55.798Z,65.55
2018-04-06T06:18:24.879Z,65.40
2018-04-06T06:20:53.223Z,65.42
2018-04-06T06:23:21.594Z,65.41
2018-04-06T06:25:50.838Z,65.08
2018-04-06T06:28:19.968Z,64.82
2018-04-06T06:30:48.535Z,64.62
2018-04-06T06:33:17.249Z,64.87
2018-04-06T06:35:47.068Z,64.13
2018-04-06T06:38:15.417Z,64.16
2018-04-06T06:40:44.134Z,64.36
2018-04-06T06:43:14.070Z,64.62
2018-04-06T06:45:42.540Z,64.35
2018-04-06T06:48:11.893Z,63.71
2018-04-06T06:50:40.471Z,63.72
2018-04-06T06:53:09.177Z,63.95
2018-04-06T06:55:37.514Z,64.00
2018-04-06T06:58:06.023Z,63.55
2018-04-06T07:00:34.564Z,63.65
2018-04-06T07:03:02.929Z,63.33
2018-04-06T07:05:31.345Z,63.45
2018-04-06T07:08:00.199Z,62.38
2018-04-06T07:10:28.799Z,62.60
2018-04-06T07:12:57.617Z,62.46
2018-04-06T07:15:26.213Z,61.97
2018-04-06T07:17:54.614Z,61.63
2018-04-06T07:20:22.958Z,61.23
2018-04-06T07:22:51.511Z,59.96
2018-04-06T07:25:20.198Z,60.53
2018-04-06T07:27:48.911Z,61.50
2018-04-06T07:30:17.540Z,61.08
2018-04-06T07:32:46.210Z,59.24
2018-04-06T07:35:15.151Z,60.70
2018-04-06T07:37:43.525Z,61.17
2018-04-06T07:40:12.134Z,60.45
2018-04-06T07:42:40.507Z,59.51
2018-04-06T07:45:08.883Z,60.08
2018-04-06T07:47:37.245Z,57.70
2018-04-06T07:50:05.621Z,58.96
2018-04-06T07:52:34.000Z,58.74
2018-04-06T07:55:02.453Z,58.57
2018-04-06T07:57:31.084Z,58.96
2018-04-06T08:00:00.187Z,57.41
2018-04-06T08:02:29.889Z,58.90
2018-04-06T08:04:58.322Z,58.14
2018-04-06T08:07:27.197Z,58.00
2018-04-06T08:09:57.407Z,58.21
2018-04-06T08:12:26.494Z,57.22
2018-04-06T08:17:30.520Z,57.20
2018-04-06T08:19:59.611Z,57.74
2018-04-06T08:22:29.750Z,57.04
2018-04-06T08:24:58.109Z,56.42
2018-04-06T08:27:27.422Z,56.89
2018-04-06T08:29:56.508Z,56.36
2018-04-06T08:32:25.274Z,55.23
2018-04-06T08:34:53.730Z,55.26
2018-04-06T08:37:22.070Z,56.41
2018-04-06T08:39:50.775Z,56.13
2018-04-06T08:42:19.509Z,54.50
2018-04-06T08:44:47.925Z,56.11
2018-04-06T08:47:16.929Z,55.79
2018-04-06T08:49:45.288Z,56.22
2018-04-06T08:52:14.009Z,56.09
2018-04-06T08:54:42.409Z,55.91
2018-04-06T08:57:11.489Z,56.33
2018-04-06T08:59:39.840Z,54.99
2018-04-06T09:02:08.210Z,56.18
2018-04-06T09:04:37.230Z,55.89
2018-04-06T09:07:05.605Z,54.80
2018-04-06T09:09:33.962Z,55.70
2018-04-06T09:12:02.497Z,55.05
2018-04-06T09:14:31.406Z,54.17
2018-04-06T09:16:59.925Z,54.47
2018-04-06T09:19:29.183Z,54.54
2018-04-06T09:21:57.840Z,55.34
2018-04-06T09:24:26.959Z,55.26
2018-04-06T09:26:55.355Z,55.25
2018-04-06T09:29:23.708Z,55.31
2018-04-06T09:31:52.348Z,55.78
2018-04-06T09:34:20.741Z,55.66
2018-04-06T09:36:49.370Z,55.80
2018-04-06T09:39:18.028Z,55.49
2018-04-06T09:41:46.381Z,55.76
2018-04-06T09:44:14.802Z,55.32
2018-04-06T09:46:43.160Z,55.73
2018-04-06T09:49:11.523Z,55.51
2018-04-06T09:51:40.098Z,55.60
2018-04-06T09:54:08.833Z,55.92
2018-04-06T09:56:37.585Z,56.06
2018-04-06T09:59:06.046Z,56.17
2018-04-06T10:01:37.920Z,56.08
2018-04-06T10:04:06.318Z,56.00
2018-04-06T10:06:35.350Z,56.35
2018-04-06T10:09:04.017Z,56.45
2018-04-06T10:11:32.713Z,55.74
2018-04-06T10:14:01.065Z,55.01
2018-04-06T10:16:29.929Z,54.92
2018-04-06T10:18:58.776Z,55.30
2018-04-06T10:21:27.458Z,55.25
2018-04-06T10:23:55.856Z,55.53
2018-04-06T10:26:24.318Z,55.74
2018-04-06T10:28:52.698Z,55.52
2018-04-06T10:31:21.129Z,55.13
2018-04-06T10:33:49.769Z,55.43
2018-04-06T10:36:18.123Z,55.00
2018-04-06T10:38:50.214Z,55.70
2018-04-06T10:41:19.017Z,55.41
2018-04-06T10:43:47.914Z,55.43
2018-04-06T10:46:16.589Z,55.65
2018-04-06T10:48:45.030Z,55.92
2018-04-06T10:51:13.391Z,55.74
2018-04-06T10:53:42.217Z,54.22
2018-04-06T10:56:10.584Z,55.08
2018-04-06T10:58:40.784Z,55.30
2018-04-06T11:01:09.095Z,55.46
2018-04-06T11:03:40.686Z,55.04
2018-04-06T11:06:12.685Z,54.53
2018-04-06T11:11:18.717Z,53.32
2018-04-06T11:13:47.562Z,53.27
2018-04-06T11:16:16.178Z,53.25
2018-04-06T11:18:44.798Z,51.61
2018-04-06T11:21:14.162Z,50.98
2018-04-06T11:23:43.985Z,51.68
2018-04-06T11:26:12.697Z,51.07
2018-04-06T11:28:41.557Z,51.63
2018-04-06T11:31:10.289Z,51.32
2018-04-06T11:33:40.673Z,48.86
2018-04-06T11:36:10.131Z,50.37
2018-04-06T11:38:39.021Z,48.72
2018-04-06T11:41:08.174Z,48.63
2018-04-06T11:43:36.660Z,48.96
2018-04-06T11:46:13.991Z,46.01
2018-04-06T11:48:42.732Z,48.75
2018-04-06T11:51:11.667Z,48.59
2018-04-06T11:53:40.049Z,47.77
2018-04-06T11:56:08.407Z,47.85
2018-04-06T11:58:36.766Z,45.45
2018-04-06T12:01:05.556Z,45.39
2018-04-06T12:03:34.569Z,46.40
2018-04-06T12:06:03.285Z,44.73
2018-04-06T12:08:32.004Z,42.83
2018-04-06T12:11:00.621Z,40.69
2018-04-06T12:13:29.262Z,45.04
2018-04-06T12:15:57.622Z,43.89
2018-04-06T12:18:25.989Z,43.90
2018-04-06T12:20:54.347Z,45.01
2018-04-06T12:23:22.722Z,44.42
2018-04-06T12:25:51.449Z,41.99
2018-04-06T12:28:20.182Z,42.73
2018-04-06T12:30:48.815Z,43.59
2018-04-06T12:33:17.502Z,42.95
2018-04-06T12:35:45.853Z,42.21
2018-04-06T12:38:14.568Z,41.07
2018-04-06T12:40:43.258Z,43.77
2018-04-06T12:43:12.589Z,41.20
2018-04-06T12:45:40.946Z,41.36
2018-04-06T12:48:09.395Z,41.97
2018-04-06T12:50:37.740Z,42.19
2018-04-06T12:53:07.826Z,42.45
2018-04-06T12:55:36.262Z,42.71
2018-04-06T12:58:04.642Z,42.94
2018-04-06T13:00:33.015Z,42.08
2018-04-06T13:03:01.470Z,41.03
2018-04-06T13:05:29.809Z,39.93
2018-04-06T13:07:58.428Z,40.51
2018-04-06T13:10:26.866Z,39.99
2018-04-06T13:12:55.234Z,40.34
2018-04-06T13:15:24.365Z,39.28
2018-04-06T13:17:52.730Z,38.81
2018-04-06T13:20:21.441Z,39.66
2018-04-06T13:22:50.674Z,39.15
2018-04-06T13:25:22.610Z,39.16
2018-04-06T13:27:51.156Z,39.07
2018-04-06T13:30:19.682Z,38.86
2018-04-06T13:32:48.369Z,38.48
2018-04-06T13:35:16.749Z,37.23
2018-04-06T13:37:45.114Z,37.99
2018-04-06T13:40:13.473Z,37.25
2018-04-06T13:42:41.855Z,37.58
2018-04-06T13:45:10.288Z,36.82
2018-04-06T13:47:38.720Z,37.30
2018-04-06T13:50:07.087Z,37.19
2018-04-06T13:52:35.447Z,36.47
2018-04-06T13:55:04.104Z,36.91
2018-04-06T13:57:32.839Z,35.40
2018-04-06T14:00:01.637Z,36.31
2018-04-06T14:02:31.125Z,36.50
2018-04-06T14:04:59.771Z,36.29
2018-04-06T14:07:28.318Z,36.76
2018-04-06T14:09:58.430Z,35.27
2018-04-06T14:12:27.218Z,35.77
2018-04-06T14:14:56.187Z,36.19
2018-04-06T14:17:25.293Z,35.37
2018-04-06T14:19:53.673Z,35.21
2018-04-06T14:22:22.049Z,35.31
2018-04-06T14:24:50.702Z,35.51
2018-04-06T14:27:19.494Z,35.57
2018-04-06T14:29:48.386Z,35.33
2018-04-06T14:32:17.086Z,35.14
2018-04-06T14:34:45.480Z,35.52
2018-04-06T14:37:13.870Z,35.20
2018-04-06T14:39:42.617Z,34.57
2018-04-06T14:42:11.154Z,34.55
2018-04-06T14:44:39.549Z,34.56
2018-04-06T14:47:07.939Z,34.09
2018-04-06T14:49:36.435Z,34.22
2018-04-06T14:52:04.804Z,34.34
2018-04-06T14:54:35.238Z,33.87
2018-04-06T14:57:03.599Z,33.89
2018-04-06T14:59:35.626Z,33.71
2018-04-06T15:02:06.397Z,33.17
2018-04-06T15:04:34.830Z,33.87
2018-04-06T15:07:04.758Z,33.99
2018-04-06T15:09:35.949Z,34.14
2018-04-06T15:12:04.371Z,34.39
2018-04-06T15:14:33.738Z,34.58
2018-04-06T15:17:02.173Z,34.74
2018-04-06T15:19:30.845Z,34.63
2018-04-06T15:22:03.094Z,34.46
2018-04-06T15:24:32.256Z,34.48
2018-04-06T15:27:00.765Z,34.61
2018-04-06T15:29:29.252Z,34.89
2018-04-06T15:31:57.813Z,34.67
2018-04-06T15:34:26.219Z,34.68
2018-04-06T15:36:54.574Z,34.64
2018-04-06T15:39:22.958Z,34.50
2018-04-06T15:41:51.323Z,34.76
2018-04-06T15:44:19.712Z,34.85
2018-04-06T15:46:48.199Z,35.02
2018-04-06T15:49:16.605Z,35.40
2018-04-06T15:51:44.958Z,35.95
2018-04-06T15:54:13.553Z,36.15
2018-04-06T15:56:41.902Z,36.75
2018-04-06T15:59:10.255Z,37.29
2018-04-06T16:01:38.837Z,37.83
2018-04-06T16:04:07.936Z,38.41
2018-04-06T16:06:36.699Z,38.75
2018-04-06T16:09:09.382Z,39.34
2018-04-06T16:11:37.734Z,39.88
2018-04-06T16:14:06.374Z,40.94
2018-04-06T16:16:34.723Z,40.41
2018-04-06T16:19:03.082Z,40.68
2018-04-06T16:21:31.438Z,41.38
2018-04-06T16:24:00.073Z,41.26
2018-04-06T16:26:28.787Z,41.67
2018-04-06T16:28:57.138Z,41.72
2018-04-06T16:31:25.933Z,41.71
2018-04-06T16:33:54.343Z,41.81
2018-04-06T16:36:22.696Z,41.94
2018-04-06T16:38:51.074Z,42.34
2018-04-06T16:41:19.418Z,42.23
2018-04-06T16:43:48.087Z,43.07
2018-04-06T16:46:16.719Z,42.95
2018-04-06T16:48:45.598Z,42.94
2018-04-06T16:51:13.955Z,43.26
2018-04-06T16:53:42.305Z,43.56
2018-04-06T16:56:10.655Z,43.62
2018-04-06T16:58:39.021Z,44.27
2018-04-06T17:01:07.726Z,43.94
2018-04-06T17:03:36.435Z,45.40
2018-04-06T17:06:05.131Z,44.67
2018-04-06T17:08:33.750Z,44.60
2018-04-06T17:11:02.092Z,45.41
2018-04-06T17:13:30.967Z,45.90
2018-04-06T17:15:59.472Z,45.58
2018-04-06T17:18:27.831Z,47.14
2018-04-06T17:20:56.230Z,46.02
2018-04-06T17:23:24.719Z,46.09
2018-04-06T17:25:53.564Z,46.36
2018-04-06T17:28:21.921Z,46.96
2018-04-06T17:30:50.285Z,46.91
2018-04-06T17:33:18.649Z,46.77
2018-04-06T17:35:47.037Z,47.32
2018-04-06T17:38:15.405Z,47.56
2018-04-06T17:40:43.757Z,47.81
2018-04-06T17:43:12.109Z,48.18
2018-04-06T17:45:40.758Z,48.43
2018-04-06T17:48:09.513Z,48.49
2018-04-06T17:50:38.064Z,48.31
2018-04-06T17:53:06.714Z,48.68
2018-04-06T17:55:35.413Z,48.52
2018-04-06T17:58:04.030Z,49.25
2018-04-06T18:00:32.505Z,49.23
2018-04-06T18:03:00.880Z,49.20
2018-04-06T18:05:29.612Z,49.50
2018-04-06T18:07:57.972Z,49.97
2018-04-06T18:10:26.354Z,50.27
2018-04-06T18:12:55.064Z,50.11
2018-04-06T18:15:23.439Z,50.29
2018-04-06T18:17:51.980Z,50.21
2018-04-06T18:20:20.712Z,50.35
2018-04-06T18:22:50.572Z,50.36
2018-04-06T18:25:19.072Z,50.59
2018-04-06T18:27:47.478Z,50.64
2018-04-06T18:30:15.867Z,50.95
2018-04-06T18:32:44.273Z,51.21
2018-04-06T18:35:12.639Z,51.78
2018-04-06T18:37:41.571Z,51.37
2018-04-06T18:40:09.938Z,51.47
2018-04-06T18:42:38.309Z,51.54
2018-04-06T18:45:07.456Z,51.91
2018-04-06T18:47:35.817Z,51.97
2018-04-06T18:50:04.184Z,51.94
2018-04-06T18:52:32.658Z,52.16
2018-04-06T18:55:09.992Z,52.43
2018-04-06T18:57:44.879Z,52.89
2018-04-06T19:00:13.590Z,52.96
2018-04-06T19:02:43.792Z,53.54
2018-04-06T19:05:13.378Z,54.06
2018-04-06T19:07:41.754Z,53.36
2018-04-06T19:10:10.487Z,53.42
2018-04-06T19:12:38.958Z,53.97
2018-04-06T19:15:07.322Z,54.03
2018-04-06T19:17:36.022Z,54.22
2018-04-06T19:20:04.393Z,54.31
2018-04-06T19:22:34.399Z,54.50
2018-04-06T19:25:03.083Z,54.58
2018-04-06T19:27:32.179Z,54.57
2018-04-06T19:30:00.804Z,54.62
2018-04-06T19:32:29.166Z,55.07
2018-04-06T19:34:57.626Z,54.70
2018-04-06T19:37:27.074Z,54.49
2018-04-06T19:39:57.706Z,54.68
2018-04-06T19:42:26.109Z,54.96
2018-04-06T19:44:54.500Z,54.69
2018-04-06T19:47:23.217Z,55.00
2018-04-06T19:49:51.574Z,55.55
2018-04-06T19:52:19.936Z,55.13
2018-04-06T19:54:49.143Z,55.55
2018-04-06T19:57:17.791Z,55.36
2018-04-06T19:59:46.148Z,55.59
2018-04-06T20:02:14.865Z,55.64
2018-04-06T20:04:43.580Z,55.79
2018-04-06T20:07:12.886Z,56.01
2018-04-06T20:09:41.983Z,56.07
2018-04-06T20:12:11.501Z,55.93
2018-04-06T20:14:41.720Z,56.00
2018-04-06T20:17:10.510Z,56.21
2018-04-06T20:19:38.901Z,56.26
2018-04-06T20:22:07.267Z,56.53
2018-04-06T20:24:36.537Z,56.60
2018-04-06T20:27:04.910Z,56.75
2018-04-06T20:29:33.721Z,56.78
2018-04-06T20:32:03.644Z,56.73
2018-04-06T20:34:32.276Z,56.93
2018-04-06T20:37:00.808Z,57.26
2018-04-06T20:39:29.584Z,57.04
2018-04-06T20:41:58.124Z,56.77
2018-04-06T20:44:26.488Z,57.10
2018-04-06T20:46:55.812Z,57.06
2018-04-06T20:49:24.258Z,56.94
2018-04-06T20:51:52.991Z,57.08
2018-04-06T20:54:22.068Z,57.16
2018-04-06T20:56:52.576Z,57.25
2018-04-06T20:59:21.103Z,57.18
2018-04-06T21:01:49.521Z,57.48
2018-04-06T21:04:20.984Z,57.44
2018-04-06T21:06:50.173Z,57.99
2018-04-06T21:09:18.531Z,57.84
2018-04-06T21:11:47.594Z,57.91
2018-04-06T21:14:16.011Z,58.11
2018-04-06T21:16:44.370Z,58.16
2018-04-06T21:19:12.899Z,58.92
2018-04-06T21:21:41.285Z,58.56
2018-04-06T21:24:10.437Z,58.97
2018-04-06T21:26:38.807Z,58.76
2018-04-06T21:29:07.428Z,58.65
2018-04-06T21:31:36.200Z,58.87
2018-04-06T21:34:04.525Z,59.15
2018-04-06T21:36:32.885Z,59.21
2018-04-06T21:39:01.326Z,59.51
2018-04-06T21:41:29.955Z,59.25
2018-04-06T21:43:58.367Z,59.22
2018-04-06T21:46:27.500Z,59.16
2018-04-06T21:48:56.696Z,59.12
2018-04-06T21:51:25.464Z,59.30
2018-04-06T21:53:54.077Z,59.32
2018-04-06T21:56:23.086Z,59.60
2018-04-06T21:58:51.489Z,59.38
2018-04-06T22:01:19.844Z,59.46
2018-04-06T22:03:48.309Z,59.70
2018-04-06T22:06:16.650Z,59.55
2018-04-06T22:08:45.050Z,59.74
2018-04-06T22:11:13.482Z,59.86
2018-04-06T22:13:41.975Z,59.73
2018-04-06T22:16:10.363Z,60.08
2018-04-06T22:18:38.732Z,59.90
2018-04-06T22:21:07.418Z,59.63
2018-04-06T22:23:35.769Z,59.63
2018-04-06T22:26:04.117Z,59.81
2018-04-06T22:28:32.470Z,59.94
2018-04-06T22:31:00.833Z,60.13
2018-04-06T22:33:29.181Z,60.21
2018-04-06T22:35:57.530Z,60.37
2018-04-06T22:38:25.881Z,60.45
2018-04-06T22:40:54.571Z,60.59
2018-04-06T22:43:22.923Z,60.80
2018-04-06T22:48:25.435Z,61.04
2018-04-06T22:50:53.904Z,61.04
2018-04-06T22:53:24.070Z,61.24
2018-04-06T22:55:52.420Z,61.26
2018-04-06T22:58:20.814Z,61.32
2018-04-06T23:00:49.169Z,61.34
2018-04-06T23:03:17.518Z,61.46
2018-04-06T23:05:46.360Z,61.58
2018-04-06T23:08:14.715Z,61.64
2018-04-06T23:10:43.076Z,61.81
2018-04-06T23:13:11.426Z,61.91
2018-04-06T23:15:40.077Z,62.01
2018-04-06T23:18:10.300Z,62.11
2018-04-06T23:20:38.667Z,62.30
2018-04-06T23:23:07.823Z,62.24
2018-04-06T23:25:36.213Z,62.58
2018-04-06T23:28:04.569Z,62.74
2018-04-06T23:30:32.964Z,62.76
2018-04-06T23:33:02.970Z,62.80
2018-04-06T23:35:31.708Z,62.85
2018-04-06T23:38:01.245Z,62.93
2018-04-06T23:40:29.666Z,62.88
2018-04-06T23:42:58.011Z,63.02
2018-04-06T23:45:26.681Z,62.96
2018-04-06T23:47:56.162Z,63.12
2018-04-06T23:50:24.914Z,63.14
2018-04-06T23:52:53.341Z,63.23
2018-04-06T23:55:21.959Z,63.20
2018-04-06T23:57:50.644Z,63.35
